createdAt,value
2018-06-04T00:00:25.418Z,18.40
2018-06-04T00:02:54.073Z,18.40
2018-06-04T00:05:22.692Z,18.30
2018-06-04T00:07:51.324Z,18.30
2018-06-04T00:10:19.986Z,18.30
2018-06-04T00:15:17.060Z,18.20
2018-06-04T00:17:45.682Z,18.20
2018-06-04T00:20:14.353Z,18.20
2018-06-04T00:22:43.055Z,18.20
2018-06-04T00:25:11.711Z,18.20
2018-06-04T00:27:40.374Z,18.10
2018-06-04T00:30:09.023Z,18.10
2018-06-04T00:32:37.677Z,18.10
2018-06-04T00:35:06.329Z,18.10
2018-06-04T00:37:34.971Z,18.00
2018-06-04T00:40:03.653Z,18.00
2018-06-04T00:42:32.266Z,18.00
2018-06-04T00:47:29.297Z,17.90
2018-06-04T00:49:57.994Z,17.90
2018-06-04T00:52:26.654Z,17.90
2018-06-04T00:54:55.282Z,17.90
2018-06-04T00:57:23.942Z,17.90
2018-06-04T00:59:52.618Z,17.90
2018-06-04T01:02:21.258Z,17.90
2018-06-04T01:04:49.917Z,17.80
2018-06-04T01:07:18.571Z,17.80
2018-06-04T01:09:47.289Z,17.80
2018-06-04T01:12:15.922Z,17.70
2018-06-04T01:14:45.137Z,17.70
2018-06-04T01:17:13.781Z,17.70
2018-06-04T01:19:42.492Z,17.70
2018-06-04T01:22:11.158Z,17.80
2018-06-04T01:24:39.801Z,17.80
2018-06-04T01:27:08.517Z,17.70
2018-06-04T01:29:37.160Z,17.80
2018-06-04T01:32:05.847Z,17.70
2018-06-04T01:34:34.519Z,17.80
2018-06-04T01:37:03.187Z,17.70
2018-06-04T01:39:31.849Z,17.70
2018-06-04T01:42:00.542Z,17.80
2018-06-04T01:44:29.260Z,17.80
2018-06-04T01:46:57.953Z,17.80
2018-06-04T01:49:26.549Z,17.80
2018-06-04T01:51:55.196Z,17.80
2018-06-04T01:54:23.861Z,17.90
2018-06-04T01:56:52.505Z,17.90
2018-06-04T01:59:21.213Z,17.90
2018-06-04T02:04:18.136Z,18.00
2018-06-04T02:06:46.904Z,18.00
2018-06-04T02:09:15.558Z,18.00
2018-06-04T02:11:44.215Z,18.00
2018-06-04T02:14:12.871Z,18.00
2018-06-04T02:16:41.550Z,18.00
2018-06-04T02:19:10.242Z,18.00
2018-06-04T02:21:38.911Z,18.00
2018-06-04T02:24:07.534Z,18.00
2018-06-04T02:26:36.223Z,18.00
2018-06-04T02:29:04.895Z,18.10
2018-06-04T02:31:33.558Z,18.00
2018-06-04T02:34:02.170Z,18.00
2018-06-04T02:36:30.857Z,18.00
2018-06-04T02:38:59.491Z,18.00
2018-06-04T02:41:28.229Z,17.90
2018-06-04T02:43:56.886Z,17.90
2018-06-04T02:46:25.570Z,17.90
2018-06-04T02:48:54.207Z,17.90
2018-06-04T02:51:22.899Z,17.90
2018-06-04T02:53:51.526Z,17.90
2018-06-04T02:56:20.267Z,17.80
2018-06-04T02:58:48.994Z,17.80
2018-06-04T03:01:17.642Z,17.80
2018-06-04T03:03:46.262Z,17.80
2018-06-04T03:06:14.974Z,17.80
2018-06-04T03:08:43.646Z,17.70
2018-06-04T03:11:12.326Z,17.70
2018-06-04T03:13:40.955Z,17.70
2018-06-04T03:16:09.634Z,17.70
2018-06-04T03:18:38.298Z,17.70
2018-06-04T03:21:06.991Z,17.80
2018-06-04T03:23:35.641Z,17.70
2018-06-04T03:26:04.370Z,17.70
2018-06-04T03:28:33.080Z,17.70
2018-06-04T03:31:01.758Z,17.80
2018-06-04T03:33:30.445Z,17.80
2018-06-04T03:35:59.066Z,17.80
2018-06-04T03:38:27.717Z,17.80
2018-06-04T03:40:56.365Z,17.80
2018-06-04T03:43:25.061Z,17.90
2018-06-04T03:45:53.712Z,17.90
2018-06-04T03:48:22.383Z,17.90
2018-06-04T03:50:51.058Z,17.90
2018-06-04T03:53:19.714Z,17.90
2018-06-04T03:55:48.374Z,18.00
2018-06-04T03:58:17.014Z,18.10
2018-06-04T04:00:45.640Z,18.20
2018-06-04T04:03:14.293Z,18.20
2018-06-04T04:05:43.008Z,18.30
2018-06-04T04:08:11.722Z,18.30
2018-06-04T04:10:40.366Z,18.20
2018-06-04T04:13:09.019Z,18.20
2018-06-04T04:15:37.730Z,18.30
2018-06-04T04:18:06.363Z,18.30
2018-06-04T04:23:03.347Z,18.30
2018-06-04T04:25:31.986Z,18.30
2018-06-04T04:28:00.679Z,18.30
2018-06-04T04:30:29.298Z,18.30
2018-06-04T04:32:57.974Z,18.20
2018-06-04T04:35:26.685Z,18.30
2018-06-04T04:37:55.422Z,18.40
2018-06-04T04:40:24.143Z,18.40
2018-06-04T04:42:52.909Z,18.40
2018-06-04T04:45:21.550Z,18.50
2018-06-04T04:47:50.204Z,18.60
2018-06-04T04:50:18.878Z,18.60
2018-06-04T04:52:47.529Z,18.60
2018-06-04T04:55:16.238Z,18.70
2018-06-04T04:57:44.907Z,18.70
2018-06-04T05:00:13.562Z,18.80
2018-06-04T05:02:42.225Z,18.80
2018-06-04T05:05:10.894Z,18.80
2018-06-04T05:07:39.567Z,18.80
2018-06-04T05:10:08.196Z,18.80
2018-06-04T05:12:36.891Z,18.80
2018-06-04T05:15:05.655Z,18.80
2018-06-04T05:17:34.303Z,18.80
2018-06-04T05:20:03.002Z,18.80
2018-06-04T05:22:31.687Z,18.80
2018-06-04T05:25:00.346Z,18.80
2018-06-04T05:27:28.971Z,18.80
2018-06-04T05:29:57.741Z,18.80
2018-06-04T05:32:26.456Z,18.70
2018-06-04T05:34:55.158Z,18.70
2018-06-04T05:37:23.833Z,18.70
2018-06-04T05:39:52.512Z,18.80
2018-06-04T05:42:21.139Z,18.80
2018-06-04T05:44:49.813Z,18.90
2018-06-04T05:47:18.457Z,19.00
2018-06-04T05:49:47.182Z,19.10
2018-06-04T05:52:15.878Z,19.20
2018-06-04T05:54:44.562Z,19.30
2018-06-04T05:57:13.255Z,19.30
2018-06-04T05:59:41.919Z,19.40
2018-06-04T06:02:10.554Z,19.40
2018-06-04T06:04:39.242Z,19.50
2018-06-04T06:07:07.910Z,19.60
2018-06-04T06:09:36.565Z,19.50
2018-06-04T06:12:05.229Z,19.60
2018-06-04T06:14:33.873Z,19.60
2018-06-04T06:17:02.545Z,19.70
2018-06-04T06:19:31.201Z,19.80
2018-06-04T06:21:59.986Z,19.80
2018-06-04T06:24:28.651Z,19.90
2018-06-04T06:26:57.321Z,20.00
2018-06-04T06:29:26.011Z,20.00
2018-06-04T06:31:54.717Z,20.00
2018-06-04T06:34:23.403Z,20.10
2018-06-04T06:36:52.029Z,20.10
2018-06-04T06:39:20.675Z,20.20
2018-06-04T06:41:49.349Z,20.20
2018-06-04T06:44:18.035Z,20.20
2018-06-04T06:46:46.728Z,20.30
2018-06-04T06:49:15.414Z,20.40
2018-06-04T06:51:44.093Z,20.30
2018-06-04T06:54:12.742Z,20.40
2018-06-04T06:56:42.238Z,20.40
2018-06-04T06:59:10.922Z,20.40
2018-06-04T07:01:39.546Z,20.40
2018-06-04T07:04:08.213Z,20.40
2018-06-04T07:06:36.849Z,20.40
2018-06-04T07:09:08.374Z,20.50
2018-06-04T07:11:36.975Z,20.60
2018-06-04T07:14:05.714Z,20.70
2018-06-04T07:16:34.354Z,20.70
2018-06-04T07:19:03.182Z,20.60
2018-06-04T07:21:31.907Z,20.60
2018-06-04T07:24:00.569Z,20.60
2018-06-04T07:26:29.314Z,20.60
2018-06-04T07:28:57.926Z,20.70
2018-06-04T07:31:26.608Z,20.70
2018-06-04T07:33:55.270Z,20.70
2018-06-04T07:38:52.302Z,20.90
2018-06-04T07:41:20.965Z,21.00
2018-06-04T07:43:49.617Z,21.00
2018-06-04T07:46:18.273Z,21.00
2018-06-04T07:48:46.950Z,21.00
2018-06-04T07:51:15.569Z,21.00
2018-06-04T07:53:44.207Z,21.00
2018-06-04T07:56:12.924Z,21.00
2018-06-04T07:58:41.581Z,21.20
2018-06-04T08:01:10.222Z,21.30
2018-06-04T08:03:38.910Z,21.30
2018-06-04T08:06:07.580Z,21.50
2018-06-04T08:08:36.254Z,21.60
2018-06-04T08:11:05.039Z,21.70
2018-06-04T08:13:33.681Z,21.90
2018-06-04T08:16:02.346Z,22.10
2018-06-04T08:18:31.015Z,22.10
2018-06-04T08:20:59.654Z,22.20
2018-06-04T08:23:28.301Z,22.20
2018-06-04T08:25:56.941Z,22.20
2018-06-04T08:28:25.602Z,22.20
2018-06-04T08:30:54.367Z,22.40
2018-06-04T08:33:23.010Z,22.50
2018-06-04T08:35:51.637Z,22.60
2018-06-04T08:38:20.314Z,22.60
2018-06-04T08:40:48.965Z,22.90
2018-06-04T08:43:17.628Z,23.00
2018-06-04T08:45:46.402Z,23.10
2018-06-04T08:48:15.087Z,22.90
2018-06-04T08:50:43.786Z,23.00
2018-06-04T08:53:12.451Z,23.10
2018-06-04T08:55:41.083Z,23.00
2018-06-04T08:58:09.730Z,23.10
2018-06-04T09:00:38.470Z,23.20
2018-06-04T09:03:07.170Z,23.10
2018-06-04T09:05:35.848Z,23.20
2018-06-04T09:08:04.564Z,23.40
2018-06-04T09:10:33.216Z,23.50
2018-06-04T09:13:01.898Z,23.60
2018-06-04T09:15:30.608Z,23.80
2018-06-04T09:17:59.281Z,23.60
2018-06-04T09:20:27.923Z,23.50
2018-06-04T09:22:56.626Z,23.60
2018-06-04T09:25:25.254Z,23.60
2018-06-04T09:27:53.935Z,23.60
2018-06-04T09:30:22.614Z,23.70
2018-06-04T09:32:51.258Z,23.60
2018-06-04T09:35:19.895Z,23.70
2018-06-04T09:37:48.581Z,23.90
2018-06-04T09:40:17.282Z,23.80
2018-06-04T09:42:45.954Z,23.90
2018-06-04T09:45:14.658Z,23.90
2018-06-04T09:47:43.339Z,23.80
2018-06-04T09:50:12.030Z,23.80
2018-06-04T09:52:40.720Z,23.90
2018-06-04T09:55:09.614Z,23.90
2018-06-04T09:57:38.268Z,23.90
2018-06-04T10:00:07.110Z,24.00
2018-06-04T10:02:35.761Z,24.10
2018-06-04T10:05:04.478Z,24.10
2018-06-04T10:07:33.174Z,24.20
2018-06-04T10:10:01.810Z,24.20
2018-06-04T10:12:30.498Z,24.20
2018-06-04T10:14:59.186Z,24.30
2018-06-04T10:17:27.830Z,24.50
2018-06-04T10:19:57.192Z,24.40
2018-06-04T10:22:25.912Z,24.50
2018-06-04T10:24:54.578Z,24.60
2018-06-04T10:27:23.243Z,24.40
2018-06-04T10:29:51.895Z,24.50
2018-06-04T10:32:20.573Z,24.80
2018-06-04T10:34:49.246Z,24.80
2018-06-04T10:37:17.930Z,24.70
2018-06-04T10:39:46.593Z,24.80
2018-06-04T10:42:15.245Z,24.80
2018-06-04T10:44:43.922Z,24.80
2018-06-04T10:47:12.759Z,24.80
2018-06-04T10:49:41.379Z,24.90
2018-06-04T10:52:10.030Z,24.80
2018-06-04T10:54:38.669Z,25.00
2018-06-04T10:57:07.345Z,24.80
2018-06-04T10:59:36.037Z,24.80
2018-06-04T11:02:04.802Z,25.00
2018-06-04T11:04:33.442Z,24.90
2018-06-04T11:07:02.121Z,25.10
2018-06-04T11:09:30.744Z,25.30
2018-06-04T11:11:59.388Z,25.00
2018-06-04T11:14:28.058Z,24.90
2018-06-04T11:16:56.710Z,25.10
2018-06-04T11:19:25.358Z,25.10
2018-06-04T11:21:54.006Z,25.20
2018-06-04T11:24:22.669Z,25.20
2018-06-04T11:26:51.299Z,25.30
2018-06-04T11:29:19.974Z,25.40
2018-06-04T11:31:48.642Z,25.30
2018-06-04T11:34:17.319Z,25.30
2018-06-04T11:36:46.014Z,25.20
2018-06-04T11:39:14.783Z,25.40
2018-06-04T11:41:43.522Z,25.40
2018-06-04T11:44:12.242Z,25.40
2018-06-04T11:46:40.902Z,25.50
2018-06-04T11:49:09.582Z,25.40
2018-06-04T11:51:38.246Z,25.60
2018-06-04T11:56:35.237Z,25.50
2018-06-04T11:59:03.933Z,25.60
2018-06-04T12:01:32.594Z,25.80
2018-06-04T12:04:01.222Z,25.80
2018-06-04T12:06:29.941Z,25.90
2018-06-04T12:08:58.671Z,26.00
2018-06-04T12:11:27.348Z,26.10
2018-06-04T12:13:56.067Z,25.80
2018-06-04T12:16:24.738Z,25.90
2018-06-04T12:18:53.390Z,26.00
2018-06-04T12:21:22.039Z,26.40
2018-06-04T12:23:50.701Z,26.40
2018-06-04T12:26:19.342Z,26.50
2018-06-04T12:28:48.044Z,26.70
2018-06-04T12:31:16.826Z,27.10
2018-06-04T12:33:45.487Z,27.30
2018-06-04T12:36:14.176Z,27.50
2018-06-04T12:38:42.834Z,27.80
2018-06-04T12:41:11.555Z,27.90
2018-06-04T12:43:40.221Z,28.10
2018-06-04T12:46:08.860Z,28.20
2018-06-04T12:48:37.494Z,28.80
2018-06-04T12:51:06.132Z,29.40
2018-06-04T12:53:34.778Z,29.70
2018-06-04T12:58:31.757Z,30.70
2018-06-04T13:01:00.473Z,31.00
2018-06-04T13:03:29.174Z,31.50
2018-06-04T13:05:57.850Z,31.80
2018-06-04T13:08:26.506Z,31.70
2018-06-04T13:10:55.178Z,32.20
2018-06-04T13:13:23.826Z,32.30
2018-06-04T13:15:52.554Z,32.50
2018-06-04T13:18:21.360Z,33.00
2018-06-04T13:20:50.071Z,33.10
2018-06-04T13:23:18.811Z,33.20
2018-06-04T13:25:47.489Z,33.20
2018-06-04T13:28:16.180Z,33.90
2018-06-04T13:30:44.791Z,33.80
2018-06-04T13:33:13.417Z,33.80
2018-06-04T13:35:42.089Z,32.60
2018-06-04T13:38:10.725Z,32.30
2018-06-04T13:40:39.358Z,31.70
2018-06-04T13:43:08.030Z,30.80
2018-06-04T13:45:36.732Z,30.20
2018-06-04T13:48:05.364Z,29.60
2018-06-04T13:50:34.075Z,29.20
2018-06-04T13:53:02.688Z,29.00
2018-06-04T13:55:31.308Z,29.60
2018-06-04T13:58:00.030Z,29.40
2018-06-04T14:00:28.709Z,29.10
2018-06-04T14:02:57.392Z,28.40
2018-06-04T14:05:26.072Z,28.00
2018-06-04T14:07:54.745Z,27.70
2018-06-04T14:10:23.525Z,27.40
2018-06-04T14:12:52.229Z,28.10
2018-06-04T14:15:20.857Z,28.70
2018-06-04T14:17:49.493Z,29.70
2018-06-04T14:20:18.143Z,30.50
2018-06-04T14:22:46.786Z,30.80
2018-06-04T14:25:15.399Z,30.70
2018-06-04T14:27:44.045Z,30.10
2018-06-04T14:30:12.733Z,29.80
2018-06-04T14:32:41.389Z,29.30
2018-06-04T14:35:10.079Z,28.90
2018-06-04T14:37:38.740Z,29.00
2018-06-04T14:40:07.393Z,29.40
2018-06-04T14:42:36.133Z,30.00
2018-06-04T14:45:05.069Z,30.70
2018-06-04T14:47:33.754Z,31.40
2018-06-04T14:50:02.465Z,30.00
2018-06-04T14:52:31.102Z,29.60
2018-06-04T14:54:59.745Z,28.30
2018-06-04T14:57:28.399Z,28.10
2018-06-04T14:59:57.041Z,27.80
2018-06-04T15:02:25.795Z,28.30
2018-06-04T15:04:54.433Z,28.90
2018-06-04T15:07:23.090Z,29.50
2018-06-04T15:09:51.769Z,30.10
2018-06-04T15:12:20.450Z,30.80
2018-06-04T15:14:49.065Z,31.50
2018-06-04T15:17:17.689Z,32.20
2018-06-04T15:19:46.357Z,32.10
2018-06-04T15:22:15.049Z,31.50
2018-06-04T15:24:43.720Z,31.30
2018-06-04T15:27:12.393Z,31.40
2018-06-04T15:29:41.065Z,30.70
2018-06-04T15:32:09.780Z,30.20
2018-06-04T15:34:38.423Z,29.90
2018-06-04T15:37:07.117Z,29.80
2018-06-04T15:39:35.753Z,28.60
2018-06-04T15:42:04.446Z,28.90
2018-06-04T15:44:33.150Z,29.20
2018-06-04T15:49:30.129Z,29.00
2018-06-04T15:51:58.785Z,29.00
2018-06-04T15:54:27.537Z,29.10
2018-06-04T15:56:56.216Z,28.80
2018-06-04T15:59:24.861Z,28.50
2018-06-04T16:01:53.501Z,27.90
2018-06-04T16:04:22.173Z,27.70
2018-06-04T16:06:50.872Z,27.40
2018-06-04T16:09:19.517Z,27.20
2018-06-04T16:11:48.159Z,26.90
2018-06-04T16:14:16.809Z,26.60
2018-06-04T16:16:45.449Z,26.50
2018-06-04T16:19:14.121Z,26.30
2018-06-04T16:21:42.737Z,26.30
2018-06-04T16:24:11.394Z,26.00
2018-06-04T16:26:40.034Z,25.90
2018-06-04T16:29:08.731Z,25.80
2018-06-04T16:31:37.365Z,25.70
2018-06-04T16:34:06.021Z,25.60
2018-06-04T16:36:34.700Z,25.50
2018-06-04T16:39:03.850Z,25.60
2018-06-04T16:41:32.482Z,25.60
2018-06-04T16:44:01.146Z,25.60
2018-06-04T16:46:29.825Z,25.40
2018-06-04T16:48:58.482Z,25.40
2018-06-04T16:51:27.154Z,25.40
2018-06-04T16:53:55.789Z,25.40
2018-06-04T16:56:24.429Z,25.30
2018-06-04T16:58:53.070Z,25.20
2018-06-04T17:01:21.758Z,25.20
2018-06-04T17:03:50.453Z,25.20
2018-06-04T17:06:19.117Z,25.10
2018-06-04T17:08:47.779Z,25.00
2018-06-04T17:11:16.430Z,24.90
2018-06-04T17:13:45.066Z,24.90
2018-06-04T17:16:13.725Z,24.80
2018-06-04T17:18:42.389Z,24.80
2018-06-04T17:21:11.010Z,24.80
2018-06-04T17:23:39.809Z,24.80
2018-06-04T17:26:08.465Z,24.70
2018-06-04T17:28:37.224Z,24.70
2018-06-04T17:31:05.881Z,24.60
2018-06-04T17:33:34.538Z,24.60
2018-06-04T17:36:04.138Z,24.60
2018-06-04T17:38:32.905Z,24.50
2018-06-04T17:41:01.605Z,24.50
2018-06-04T17:43:30.229Z,24.40
2018-06-04T17:45:58.921Z,24.40
2018-06-04T17:48:27.565Z,24.40
2018-06-04T17:50:56.240Z,24.40
2018-06-04T17:53:24.904Z,24.30
2018-06-04T17:55:53.549Z,24.30
2018-06-04T17:58:22.200Z,24.30
2018-06-04T18:00:50.886Z,24.20
2018-06-04T18:03:19.573Z,24.10
2018-06-04T18:05:48.222Z,24.10
2018-06-04T18:08:16.878Z,24.10
2018-06-04T18:10:45.518Z,24.00
2018-06-04T18:13:14.186Z,23.90
2018-06-04T18:15:42.834Z,23.80
2018-06-04T18:18:11.529Z,23.80
2018-06-04T18:20:40.173Z,23.70
2018-06-04T18:23:08.805Z,23.70
2018-06-04T18:25:37.445Z,23.60
2018-06-04T18:28:06.117Z,23.50
2018-06-04T18:30:34.933Z,23.40
2018-06-04T18:33:03.672Z,23.40
2018-06-04T18:35:32.357Z,23.30
2018-06-04T18:38:00.973Z,23.20
2018-06-04T18:40:29.658Z,23.20
2018-06-04T18:42:58.284Z,23.10
2018-06-04T18:45:26.996Z,23.00
2018-06-04T18:47:55.684Z,22.90
2018-06-04T18:50:24.365Z,22.80
2018-06-04T18:52:53.823Z,22.70
2018-06-04T18:55:22.461Z,22.60
2018-06-04T18:57:51.125Z,22.50
2018-06-04T19:00:19.819Z,22.40
2018-06-04T19:02:48.549Z,22.30
2018-06-04T19:05:17.250Z,22.20
2018-06-04T19:07:45.969Z,22.00
2018-06-04T19:10:14.633Z,21.90
2018-06-04T19:15:11.629Z,21.60
2018-06-04T19:17:40.332Z,21.40
2018-06-04T19:20:09.018Z,21.30
2018-06-04T19:22:37.802Z,21.20
2018-06-04T19:25:06.506Z,21.10
2018-06-04T19:27:35.187Z,20.90
2018-06-04T19:30:04.330Z,20.80
2018-06-04T19:32:33.002Z,20.80
2018-06-04T19:35:01.702Z,20.70
2018-06-04T19:37:30.327Z,20.60
2018-06-04T19:39:59.013Z,20.70
2018-06-04T19:42:27.653Z,20.70
2018-06-04T19:44:56.329Z,20.60
2018-06-04T19:47:24.999Z,20.60
2018-06-04T19:49:53.678Z,20.60
2018-06-04T19:52:22.398Z,20.60
2018-06-04T19:54:51.078Z,20.50
2018-06-04T19:57:19.762Z,20.40
2018-06-04T19:59:48.446Z,20.30
2018-06-04T20:02:17.115Z,20.20
2018-06-04T20:04:45.777Z,20.20
2018-06-04T20:07:14.454Z,20.00
2018-06-04T20:09:43.218Z,20.00
2018-06-04T20:12:11.853Z,19.80
2018-06-04T20:14:40.628Z,19.70
2018-06-04T20:17:09.326Z,19.70
2018-06-04T20:19:38.029Z,19.50
2018-06-04T20:22:06.708Z,19.40
2018-06-04T20:24:35.413Z,19.30
2018-06-04T20:27:04.097Z,19.20
2018-06-04T20:29:32.774Z,19.20
2018-06-04T20:32:01.458Z,19.10
2018-06-04T20:34:30.127Z,18.90
2018-06-04T20:36:58.773Z,18.70
2018-06-04T20:39:27.449Z,18.60
2018-06-04T20:41:56.105Z,18.40
2018-06-04T20:44:24.774Z,18.30
2018-06-04T20:46:53.545Z,18.20
2018-06-04T20:49:22.179Z,18.10
2018-06-04T20:51:50.829Z,17.90
2018-06-04T20:54:19.473Z,17.80
2018-06-04T20:56:48.169Z,17.80
2018-06-04T20:59:16.825Z,17.60
2018-06-04T21:01:45.513Z,17.60
2018-06-04T21:06:42.549Z,17.60
2018-06-04T21:11:39.833Z,17.50
2018-06-04T21:14:08.494Z,17.50
2018-06-04T21:16:37.204Z,17.50
2018-06-04T21:19:05.846Z,17.50
2018-06-04T21:21:34.526Z,17.40
2018-06-04T21:24:03.186Z,17.40
2018-06-04T21:26:31.852Z,17.30
2018-06-04T21:29:00.465Z,17.20
2018-06-04T21:31:29.145Z,17.10
2018-06-04T21:33:57.762Z,17.10
2018-06-04T21:36:26.441Z,17.00
2018-06-04T21:38:55.106Z,16.90
2018-06-04T21:41:23.745Z,16.90
2018-06-04T21:43:52.407Z,16.90
2018-06-04T21:46:21.050Z,16.80
2018-06-04T21:48:49.710Z,16.80
2018-06-04T21:51:18.405Z,16.80
2018-06-04T21:53:47.118Z,16.70
2018-06-04T21:56:15.794Z,16.70
2018-06-04T21:58:44.605Z,16.60
2018-06-04T22:01:13.315Z,16.60
2018-06-04T22:03:41.964Z,16.50
2018-06-04T22:06:10.662Z,16.50
2018-06-04T22:08:39.339Z,16.40
2018-06-04T22:11:08.054Z,16.40
2018-06-04T22:13:36.714Z,16.30
2018-06-04T22:16:05.498Z,16.30
2018-06-04T22:18:34.207Z,16.30
2018-06-04T22:21:02.861Z,16.20
2018-06-04T22:23:31.515Z,16.20
2018-06-04T22:26:00.173Z,16.20
2018-06-04T22:28:28.809Z,16.10
2018-06-04T22:30:57.486Z,16.10
2018-06-04T22:33:26.185Z,16.00
2018-06-04T22:35:54.849Z,16.00
2018-06-04T22:38:23.538Z,16.00
2018-06-04T22:40:52.145Z,15.90
2018-06-04T22:43:20.819Z,15.90
2018-06-04T22:45:50.614Z,15.80
2018-06-04T22:48:19.298Z,15.80
2018-06-04T22:50:48.006Z,15.80
2018-06-04T22:53:16.752Z,15.70
2018-06-04T22:55:45.397Z,15.60
2018-06-04T22:58:14.038Z,15.60
2018-06-04T23:00:42.766Z,15.60
2018-06-04T23:03:11.452Z,15.50
2018-06-04T23:05:40.191Z,15.50
2018-06-04T23:08:08.905Z,15.50
2018-06-04T23:10:37.585Z,15.40
2018-06-04T23:13:06.245Z,15.40
2018-06-04T23:15:34.913Z,15.30
2018-06-04T23:18:03.593Z,15.50
2018-06-04T23:20:32.230Z,15.60
2018-06-04T23:23:00.937Z,15.70
2018-06-04T23:25:29.560Z,15.80
2018-06-04T23:27:58.206Z,15.80
2018-06-04T23:30:26.885Z,15.70
2018-06-04T23:32:55.558Z,15.70
2018-06-04T23:35:24.230Z,15.60
2018-06-04T23:37:52.925Z,15.60
2018-06-04T23:40:21.594Z,15.50
2018-06-04T23:42:50.393Z,15.50
2018-06-04T23:45:19.049Z,15.40
2018-06-04T23:47:47.701Z,15.40
2018-06-04T23:50:16.389Z,15.30
2018-06-04T23:52:45.062Z,15.30
2018-06-04T23:55:13.701Z,15.30
2018-06-04T23:57:42.369Z,15.40
